Time;durP1;ratioP1;P1;durP2;ratioP2;P2;SDS_P1;SDS_P2;PMS_P1;PMS_P2;Temp;Humidity;BMP_temperature;BMP_pressure;BME280_temperature;BME280_humidity;BME280_pressure;Samples;Min_cycle;Max_cycle;Signal;HPM_P1;HPM_P2
2021/12/14 00:00:18;;;;;;;5.10;4.60;;;;;;;0.34;72.97;95267.84;5119822;28;20219;-64
2021/12/14 00:02:45;;;;;;;4.77;4.27;;;;;;;0.41;72.79;95264.00;5118631;28;20253;-63
2021/12/14 00:05:13;;;;;;;4.97;4.47;;;;;;;0.34;72.97;95270.41;5120495;28;20268;-65
2021/12/14 00:07:39;;;;;;;5.43;4.93;;;;;;;0.42;72.76;95267.41;5118886;28;20245;-65
2021/12/14 00:10:56;;;;;;;4.80;4.40;;;;;;;0.36;72.41;95272.94;5120904;28;20214;-65
2021/12/14 00:13:18;;;;;;;5.50;5.00;;;;;;;0.38;72.51;95261.59;5114267;28;20262;-65
2021/12/14 00:15:43;;;;;;;5.30;4.80;;;;;;;0.37;72.36;95264.25;5118485;28;20227;-66
2021/12/14 00:18:13;;;;;;;5.20;4.70;;;;;;;0.38;71.97;95268.53;5118406;28;20234;-64
2021/12/14 00:20:46;;;;;;;5.00;4.53;;;;;;;0.39;72.42;95273.59;5115162;28;20303;-69
2021/12/14 00:25:46;;;;;;;5.27;4.77;;;;;;;0.39;72.07;95273.59;5119192;28;20211;-65
2021/12/14 00:28:26;;;;;;;5.17;4.67;;;;;;;0.50;71.63;95282.53;5117020;28;20287;-68
2021/12/14 00:30:56;;;;;;;5.07;4.57;;;;;;;0.44;71.92;95281.13;5121412;28;20238;-64
2021/12/14 00:33:26;;;;;;;5.20;4.70;;;;;;;0.41;71.83;95284.69;5119005;28;20272;-64
2021/12/14 00:35:52;;;;;;;5.20;4.70;;;;;;;0.36;71.84;95289.28;5115649;28;20228;-65
2021/12/14 03:28:40;;;;;;;5.83;5.30;;;;;;;0.16;76.63;95313.66;5093134;28;20625;-64
2021/12/14 03:31:24;;;;;;;5.80;5.27;;;;;;;0.16;76.42;95292.09;5071010;28;20278;-63
2021/12/14 03:34:13;;;;;;;6.03;5.20;;;;;;;0.20;75.87;95301.38;5074836;28;20255;-63
2021/12/14 03:36:47;;;;;;;5.70;5.20;;;;;;;0.23;76.32;95306.38;5066299;28;20221;-64
2021/12/14 03:39:25;;;;;;;5.70;5.20;;;;;;;0.21;76.33;95303.03;5066395;28;20216;-64
2021/12/14 03:42:05;;;;;;;5.67;5.10;;;;;;;0.21;76.46;95305.63;5067320;28;20237;-64
2021/12/14 03:44:38;;;;;;;5.90;5.40;;;;;;;0.09;76.89;95311.47;5070890;28;20225;-64
2021/12/14 03:47:12;;;;;;;6.17;5.67;;;;;;;0.12;77.07;95312.13;5070405;28;20228;-65
2021/12/14 03:49:42;;;;;;;7.30;5.57;;;;;;;0.17;76.62;95315.31;5070342;28;20223;-64
2021/12/14 03:52:11;;;;;;;6.47;5.77;;;;;;;0.10;76.74;95308.78;5070375;28;20308;-65
2021/12/14 03:54:37;;;;;;;6.03;5.50;;;;;;;0.16;76.63;95316.22;5068311;28;20213;-64
2021/12/14 03:57:03;;;;;;;7.10;6.40;;;;;;;0.10;77.13;95315.72;5070003;28;20235;-64
2021/12/14 03:59:30;;;;;;;6.73;6.13;;;;;;;0.00;77.38;95317.97;5070380;28;20257;-67
2021/12/14 04:01:58;;;;;;;6.90;6.20;;;;;;;0.02;77.08;95316.09;5071380;28;20212;-64
2021/12/14 04:04:35;;;;;;;7.73;6.93;;;;;;;0.01;77.56;95319.63;5074704;28;20201;-65
2021/12/14 04:07:04;;;;;;;7.97;7.23;;;;;;;0.18;77.24;95316.97;5074478;28;20211;-63
2021/12/14 04:09:33;;;;;;;7.77;6.57;;;;;;;0.10;77.27;95313.94;5068646;28;20279;-63
2021/12/14 04:12:00;;;;;;;7.10;6.40;;;;;;;0.09;77.41;95319.22;5068177;28;20225;-67
2021/12/14 04:14:29;;;;;;;6.77;6.17;;;;;;;0.13;77.52;95325.88;5074423;28;20212;-63
2021/12/14 04:16:57;;;;;;;6.77;6.17;;;;;;;0.07;77.42;95319.28;5072364;28;20209;-66
2021/12/14 04:19:27;;;;;;;7.30;6.60;;;;;;;0.09;77.75;95321.81;5073855;28;20225;-62
2021/12/14 04:21:58;;;;;;;6.80;6.20;;;;;;;0.16;77.81;95328.31;5072297;28;20213;-62
2021/12/14 04:24:29;;;;;;;7.33;6.50;;;;;;;0.12;77.85;95329.41;5070937;28;20220;-63
2021/12/14 04:26:56;;;;;;;6.50;5.90;;;;;;;0.09;78.28;95332.16;5067520;28;20328;-62
2021/12/14 04:29:22;;;;;;;7.03;6.33;;;;;;;0.19;77.69;95341.09;5089852;28;20294;-63
2021/12/14 04:31:50;;;;;;;7.37;6.67;;;;;;;0.18;77.61;95331.66;5122954;28;20249;-63
2021/12/14 04:34:17;;;;;;;7.50;6.80;;;;;;;0.11;77.67;95341.50;5121122;28;20244;-64
2021/12/14 04:36:45;;;;;;;7.47;6.73;;;;;;;0.13;77.86;95343.97;5124645;28;20214;-64
2021/12/14 04:53:21;;;;;;;8.10;7.30;;;;;;;0.11;78.33;95345.84;5124042;28;20268;-63
2021/12/14 04:55:47;;;;;;;9.03;7.50;;;;;;;0.12;78.26;95356.09;5121223;28;20279;-64
2021/12/14 04:58:14;;;;;;;8.90;8.00;;;;;;;0.08;78.36;95345.97;5122246;27;20211;-63
2021/12/14 05:00:48;;;;;;;8.40;7.60;;;;;;;0.14;78.16;95335.34;5124156;28;20223;-64
2021/12/14 05:03:19;;;;;;;8.97;8.07;;;;;;;0.08;78.58;95339.06;5124712;28;20234;-64
2021/12/14 05:05:51;;;;;;;9.67;8.77;;;;;;;0.05;78.51;95346.13;5120501;28;20309;-63
2021/12/14 05:11:04;;;;;;;9.90;8.90;;;;;;;0.07;78.99;95352.06;5124520;28;20235;-64
2021/12/14 05:13:35;;;;;;;9.40;8.43;;;;;;;0.07;78.64;95354.66;5140870;27;20230;-63
2021/12/14 05:16:01;;;;;;;9.53;8.63;;;;;;;0.03;78.95;95351.41;5122548;28;20276;-63
2021/12/14 05:18:26;;;;;;;10.07;9.07;;;;;;;0.06;78.93;95347.84;5150122;27;20242;-63
2021/12/14 05:20:52;;;;;;;10.50;9.43;;;;;;;0.01;79.08;95342.06;5121289;28;20234;-63
2021/12/14 05:23:24;;;;;;;9.37;8.47;;;;;;;0.06;78.77;95348.66;5122144;28;20211;-62
2021/12/14 05:25:50;;;;;;;10.17;9.10;;;;;;;0.04;78.82;95350.47;5122055;28;20262;-63
2021/12/14 05:28:19;;;;;;;10.40;9.03;;;;;;;-0.01;78.73;95350.72;5122516;28;20322;-64
2021/12/14 05:30:47;;;;;;;9.10;8.20;;;;;;;-0.15;79.00;95329.09;5119160;27;20369;-63
2021/12/14 05:33:20;;;;;;;9.07;8.17;;;;;;;0.12;78.46;95352.66;5122816;28;20223;-63
2021/12/14 05:35:48;;;;;;;10.90;8.93;;;;;;;-0.01;79.03;95348.13;5122400;28;20241;-63
2021/12/14 05:38:23;;;;;;;9.77;8.87;;;;;;;0.07;78.81;95344.31;5121765;28;20246;-62
2021/12/14 05:43:28;;;;;;;12.97;8.83;;;;;;;0.11;78.84;95361.34;5121322;28;20290;-63
2021/12/14 05:45:58;;;;;;;9.50;8.57;;;;;;;0.05;78.57;95361.66;5121591;28;20246;-63
2021/12/14 05:48:30;;;;;;;10.70;8.57;;;;;;;0.05;78.56;95359.91;5123368;28;20230;-63
2021/12/14 05:51:00;;;;;;;10.03;9.03;;;;;;;0.07;78.56;95360.66;5121113;27;20251;-67
2021/12/14 05:53:28;;;;;;;10.60;8.90;;;;;;;0.08;78.63;95367.53;5120116;28;20222;-64
2021/12/14 05:55:55;;;;;;;9.77;8.27;;;;;;;0.14;78.21;95369.78;5121031;28;20205;-64
2021/12/14 05:58:22;;;;;;;9.37;8.37;;;;;;;0.20;78.10;95377.22;5118840;28;20306;-64
2021/12/14 06:00:53;;;;;;;9.90;8.90;;;;;;;0.22;77.98;95371.97;5120385;28;20241;-63
2021/12/14 06:03:29;;;;;;;11.37;9.50;;;;;;;0.14;78.40;95374.94;5122544;28;20271;-63
2021/12/14 06:05:57;;;;;;;11.33;8.63;;;;;;;0.17;78.22;95376.53;5119614;28;20250;-64
2021/12/14 06:08:27;;;;;;;10.63;9.40;;;;;;;0.26;77.85;95386.38;5117099;28;20211;-68
2021/12/14 06:10:54;;;;;;;10.60;9.60;;;;;;;0.28;77.67;95392.31;5151069;27;20215;-64
2021/12/14 06:13:21;;;;;;;12.00;9.23;;;;;;;0.24;77.83;95385.63;5118362;28;20230;-66
2021/12/14 06:15:47;;;;;;;10.90;9.60;;;;;;;0.28;77.51;95389.75;5121658;28;20232;-64
2021/12/14 06:18:21;;;;;;;11.70;9.13;;;;;;;0.25;77.87;95383.91;5118346;28;20234;-61
2021/12/14 06:20:47;;;;;;;9.90;8.90;;;;;;;0.27;77.93;95382.91;5122608;28;20219;-64
2021/12/14 06:23:13;;;;;;;9.07;8.17;;;;;;;0.35;77.63;95377.34;5121134;28;20200;-63
2021/12/14 06:25:39;;;;;;;10.30;9.30;;;;;;;0.34;77.20;95384.22;5120688;28;20251;-63
2021/12/14 06:28:05;;;;;;;10.20;8.90;;;;;;;0.36;76.96;95391.94;5120482;28;20219;-64
2021/12/14 06:30:34;;;;;;;10.47;9.37;;;;;;;0.44;77.03;95392.34;5118584;28;20265;-64
2021/12/14 06:33:09;;;;;;;10.20;9.00;;;;;;;0.46;76.44;95393.13;5122434;27;20244;-62
2021/12/14 06:35:40;;;;;;;9.53;8.53;;;;;;;0.45;76.62;95391.44;5120557;28;20214;-67
2021/12/14 06:38:29;;;;;;;9.77;8.50;;;;;;;0.46;76.53;95400.06;5121859;28;20211;-67
2021/12/14 06:41:08;;;;;;;11.27;9.00;;;;;;;0.34;76.62;95404.94;5118525;28;20224;-63
2021/12/14 06:43:54;;;;;;;9.63;8.63;;;;;;;0.45;76.58;95404.38;5116722;28;20211;-65
2021/12/14 06:46:24;;;;;;;9.80;8.70;;;;;;;0.46;76.69;95418.16;5118310;28;20254;-63
2021/12/14 06:49:00;;;;;;;10.97;8.57;;;;;;;0.55;76.10;95415.06;5121625;27;20257;-64
2021/12/14 06:51:55;;;;;;;10.73;8.73;;;;;;;0.52;76.49;95417.81;5119522;28;20239;-65
2021/12/14 06:54:25;;;;;;;11.23;8.90;;;;;;;0.50;76.96;95417.91;5117608;28;20252;-63
2021/12/14 06:56:54;;;;;;;10.30;9.20;;;;;;;0.53;76.78;95419.50;5119564;28;20227;-63
2021/12/14 06:59:22;;;;;;;10.13;9.00;;;;;;;0.47;76.77;95425.00;5118099;28;20208;-64
2021/12/14 07:01:58;;;;;;;11.43;9.57;;;;;;;0.49;76.98;95428.34;5118003;28;20222;-63
2021/12/14 07:04:30;;;;;;;10.20;9.10;;;;;;;0.60;77.07;95431.19;5118151;28;20238;-63
2021/12/14 07:06:58;;;;;;;9.97;8.97;;;;;;;0.50;76.91;95422.25;5117792;28;20303;-62
2021/12/14 07:09:28;;;;;;;10.40;9.33;;;;;;;0.51;77.14;95421.31;5120158;28;20253;-62
2021/12/14 07:12:04;;;;;;;11.23;10.03;;;;;;;0.57;77.55;95431.34;5117914;28;20231;-62
2021/12/14 07:14:54;;;;;;;11.50;9.43;;;;;;;0.63;77.45;95425.84;5121035;27;20261;-64
2021/12/14 07:17:28;;;;;;;13.97;10.40;;;;;;;0.57;77.66;95432.19;5146803;27;20219;-64
2021/12/14 07:20:06;;;;;;;10.53;9.47;;;;;;;0.46;77.66;95428.50;5118810;28;20223;-62
2021/12/14 07:22:46;;;;;;;11.47;10.23;;;;;;;0.51;77.73;95423.91;5116941;28;20232;-63
2021/12/14 07:25:28;;;;;;;11.93;10.73;;;;;;;0.57;78.01;95436.53;5120770;28;20234;-64
2021/12/14 07:28:07;;;;;;;12.23;11.03;;;;;;;0.62;78.07;95440.56;5119557;28;20226;-63
2021/12/14 07:30:36;;;;;;;12.70;10.17;;;;;;;0.65;77.83;95444.72;5121423;28;20222;-67
2021/12/14 07:33:29;;;;;;;12.30;10.13;;;;;;;0.73;77.73;95446.91;5119659;28;20227;-63
2021/12/14 07:35:58;;;;;;;14.13;10.43;;;;;;;0.79;77.57;95442.22;5119247;27;20254;-64
2021/12/14 07:38:40;;;;;;;12.67;11.37;;;;;;;0.82;77.45;95447.25;5117652;28;20254;-66
2021/12/14 07:41:14;;;;;;;12.90;10.87;;;;;;;0.78;77.56;95439.75;5119303;28;20203;-67
2021/12/14 07:43:43;;;;;;;11.53;10.33;;;;;;;0.73;77.27;95452.91;5120365;28;20222;-66
2021/12/14 07:46:15;;;;;;;12.50;11.20;;;;;;;0.74;77.37;95459.75;5118542;28;20269;-64
2021/12/14 07:48:51;;;;;;;11.87;10.30;;;;;;;0.70;77.38;95447.09;5119381;28;20221;-64
2021/12/14 07:51:19;;;;;;;11.60;10.40;;;;;;;0.72;77.65;95451.22;5120221;28;20214;-64
2021/12/14 07:53:49;;;;;;;12.23;11.03;;;;;;;0.63;77.83;95446.56;5118558;28;20215;-64
2021/12/14 07:56:27;;;;;;;12.37;10.20;;;;;;;0.75;77.72;95453.69;5117785;28;20214;-65
2021/12/14 07:58:54;;;;;;;11.23;10.10;;;;;;;0.75;77.58;95448.50;5118029;28;20221;-66
2021/12/14 08:01:20;;;;;;;11.17;10.00;;;;;;;0.91;77.37;95463.19;5117982;28;20222;-62
2021/12/14 08:03:46;;;;;;;12.43;11.13;;;;;;;0.99;77.14;95463.63;5116385;28;20219;-64
2021/12/14 08:06:14;;;;;;;12.17;10.97;;;;;;;0.99;76.91;95468.78;5117151;28;20223;-62
2021/12/14 08:08:44;;;;;;;12.07;10.87;;;;;;;1.12;77.11;95469.81;5120056;28;20213;-64
2021/12/14 08:14:00;;;;;;;11.57;10.37;;;;;;;1.10;76.55;95466.47;5121432;28;20222;-63
2021/12/14 08:16:25;;;;;;;12.40;11.10;;;;;;;1.19;76.52;95473.75;5116561;28;20208;-63
2021/12/14 08:18:51;;;;;;;12.60;10.73;;;;;;;1.11;76.73;95470.72;5115972;28;20292;-63
2021/12/14 08:21:20;;;;;;;12.30;11.00;;;;;;;1.03;76.89;95475.50;5119309;28;20243;-64
2021/12/14 08:23:59;;;;;;;13.30;11.90;;;;;;;0.99;77.13;95479.16;5121400;28;20234;-64
2021/12/14 08:26:50;;;;;;;13.10;11.70;;;;;;;0.93;77.49;95477.72;5118506;27;20223;-63
2021/12/14 08:29:23;;;;;;;12.50;11.20;;;;;;;0.96;77.30;95477.56;5118017;28;20219;-63
2021/12/14 08:31:57;;;;;;;12.73;11.43;;;;;;;1.01;77.59;95475.56;5119540;28;20284;-65
2021/12/14 08:34:27;;;;;;;13.17;11.87;;;;;;;1.05;77.21;95479.66;5119779;28;20223;-66
2021/12/14 08:37:09;;;;;;;13.20;11.80;;;;;;;0.94;77.63;95476.84;5119503;28;20223;-65
2021/12/14 08:40:10;;;;;;;13.53;12.13;;;;;;;1.11;77.47;95470.72;5115369;28;20290;-67
2021/12/14 08:42:51;;;;;;;13.33;11.53;;;;;;;1.03;77.29;95468.56;5119134;28;20299;-67
2021/12/14 08:45:25;;;;;;;12.93;11.37;;;;;;;1.03;77.44;95471.16;5118694;28;20215;-63
2021/12/14 08:48:05;;;;;;;15.73;13.33;;;;;;;1.14;77.45;95467.97;5116224;28;20268;-64
2021/12/14 08:50:54;;;;;;;14.10;12.60;;;;;;;1.18;77.12;95460.88;5113509;28;20212;-67
2021/12/14 08:53:23;;;;;;;14.63;13.13;;;;;;;1.15;77.20;95466.22;5123316;28;20203;-65
2021/12/14 08:55:52;;;;;;;15.07;13.50;;;;;;;1.18;76.94;95460.88;5118218;28;20207;-64
2021/12/14 08:58:17;;;;;;;13.80;12.07;;;;;;;1.26;76.93;95463.91;5119764;28;20241;-63
2021/12/14 09:00:47;;;;;;;15.57;11.80;;;;;;;1.23;77.12;95459.72;5117805;28;20215;-65
2021/12/14 09:03:20;;;;;;;14.17;12.60;;;;;;;1.32;77.05;95451.41;5117931;28;20226;-64
2021/12/14 09:05:51;;;;;;;14.37;12.87;;;;;;;1.45;76.86;95461.13;5144350;27;20227;-64
2021/12/14 09:08:20;;;;;;;13.37;11.97;;;;;;;1.42;75.89;95458.69;5118405;28;20287;-65
2021/12/14 09:10:49;;;;;;;14.77;13.17;;;;;;;1.45;75.77;95455.94;5116677;28;20219;-65
2021/12/14 09:13:16;;;;;;;13.93;12.30;;;;;;;1.45;75.83;95455.94;5147553;27;20216;-67
2021/12/14 09:15:46;;;;;;;13.93;12.63;;;;;;;1.31;76.31;95434.22;5121537;28;20219;-64
2021/12/14 09:18:14;;;;;;;12.63;11.33;;;;;;;1.45;75.88;95449.00;5123461;28;20219;-65
2021/12/14 09:20:46;;;;;;;15.20;12.73;;;;;;;1.42;76.16;95448.34;5122333;27;20203;-64
2021/12/14 09:23:21;;;;;;;14.60;13.10;;;;;;;1.61;75.91;95445.53;5122812;28;20199;-65
2021/12/14 09:25:47;;;;;;;14.27;12.47;;;;;;;1.69;74.92;95443.34;5123589;28;20226;-66
2021/12/14 09:28:14;;;;;;;14.27;12.87;;;;;;;1.65;74.93;95447.84;5119159;28;20215;-66
2021/12/14 09:30:48;;;;;;;14.83;13.30;;;;;;;1.58;75.12;95431.00;5122611;28;20242;-66
2021/12/14 09:33:15;;;;;;;13.70;12.30;;;;;;;1.65;75.36;95429.69;5125188;28;20215;-63
2021/12/14 09:35:43;;;;;;;14.07;12.57;;;;;;;1.78;75.21;95429.84;5123234;27;20219;-62
2021/12/14 09:38:11;;;;;;;15.63;14.03;;;;;;;1.89;75.19;95439.59;5122914;28;20275;-64
2021/12/14 09:40:44;;;;;;;14.73;13.13;;;;;;;1.92;74.59;95429.88;5114532;28;20229;-66
2021/12/14 09:43:10;;;;;;;13.37;12.03;;;;;;;1.86;73.91;95426.81;5121470;28;20219;-64
2021/12/14 09:45:43;;;;;;;17.13;14.60;;;;;;;1.64;75.39;95420.28;5119954;28;20207;-65
2021/12/14 09:48:11;;;;;;;16.30;13.73;;;;;;;1.79;75.38;95408.16;5121340;28;20246;-61
2021/12/14 09:50:41;;;;;;;16.13;14.53;;;;;;;1.81;75.24;95428.84;5137854;27;20212;-63
2021/12/14 09:53:10;;;;;;;17.00;15.27;;;;;;;1.61;75.57;95420.44;5145623;27;20244;-63
2021/12/14 09:55:40;;;;;;;17.00;15.30;;;;;;;1.68;75.39;95416.56;5121702;28;20222;-64
2021/12/14 09:58:11;;;;;;;16.13;14.37;;;;;;;1.79;75.51;95407.34;5121261;28;20215;-63
2021/12/14 10:00:48;;;;;;;16.40;14.30;;;;;;;1.80;75.01;95412.44;5122348;28;20294;-62
2021/12/14 10:03:15;;;;;;;17.17;14.77;;;;;;;1.96;75.40;95412.38;5120989;28;20226;-63
2021/12/14 10:05:57;;;;;;;15.73;13.07;;;;;;;1.99;74.80;95409.59;5119987;27;20228;-63
2021/12/14 10:08:33;;;;;;;17.87;14.20;;;;;;;2.07;74.35;95410.00;5149702;27;20208;-63
2021/12/14 10:11:08;;;;;;;13.93;12.43;;;;;;;2.10;74.56;95415.00;5124013;28;20219;-63
2021/12/14 10:13:38;;;;;;;15.00;13.43;;;;;;;2.00;74.07;95408.69;5121832;28;20235;-63
2021/12/14 10:16:05;;;;;;;15.87;14.27;;;;;;;2.17;73.81;95415.47;5121032;28;20268;-63
2021/12/14 10:18:44;;;;;;;16.10;13.73;;;;;;;2.12;74.17;95413.16;5119049;28;20216;-64
2021/12/14 10:21:30;;;;;;;14.80;13.20;;;;;;;2.06;74.19;95412.66;5147013;27;20535;-64
2021/12/14 10:23:58;;;;;;;15.77;13.43;;;;;;;1.90;74.06;95400.63;5122554;28;20227;-64
2021/12/14 10:26:24;;;;;;;17.30;14.50;;;;;;;2.05;74.70;95411.00;5120759;28;20265;-68
2021/12/14 10:28:57;;;;;;;16.30;14.60;;;;;;;2.12;75.15;95407.13;5120801;28;20211;-63
2021/12/14 10:31:31;;;;;;;16.47;14.67;;;;;;;1.91;75.14;95402.28;5136184;27;20242;-62
2021/12/14 10:34:00;;;;;;;18.23;16.33;;;;;;;1.96;75.17;95405.44;5121327;28;20271;-63
2021/12/14 10:36:35;;;;;;;18.70;16.07;;;;;;;2.03;74.88;95397.28;5121585;28;20254;-63
2021/12/14 10:44:31;;;;;;;17.13;15.33;;;;;;;2.05;75.07;95398.88;5118913;28;20227;-68
2021/12/14 10:46:57;;;;;;;18.50;16.53;;;;;;;1.94;74.49;95403.84;5120951;28;20206;-67
2021/12/14 10:49:26;;;;;;;20.00;16.53;;;;;;;1.87;74.85;95399.94;5122822;27;20227;-64
2021/12/14 10:51:57;;;;;;;17.53;15.80;;;;;;;1.85;75.00;95392.28;5118709;28;20297;-63
2021/12/14 10:54:23;;;;;;;16.63;14.67;;;;;;;1.88;74.91;95396.44;5119972;27;20226;-64
2021/12/14 10:56:57;;;;;;;15.13;13.63;;;;;;;1.81;75.22;95400.31;5115052;28;20234;-63
2021/12/14 10:59:29;;;;;;;16.67;14.97;;;;;;;1.88;74.97;95394.69;5116808;28;20203;-63
2021/12/14 11:01:55;;;;;;;16.67;14.97;;;;;;;1.79;75.38;95391.78;5116016;28;20251;-63
2021/12/14 11:04:25;;;;;;;16.27;14.57;;;;;;;1.88;75.08;95388.66;5141102;27;20223;-63
2021/12/14 11:06:52;;;;;;;15.70;14.10;;;;;;;1.87;74.89;95386.97;5141728;27;20230;-63
2021/12/14 11:12:06;;;;;;;18.00;15.50;;;;;;;1.91;75.84;95385.88;5115418;28;20211;-64
2021/12/14 11:14:35;;;;;;;18.93;16.97;;;;;;;1.89;75.59;95380.78;5115823;28;20207;-63
2021/12/14 11:19:59;;;;;;;18.63;16.37;;;;;;;2.13;75.09;95391.47;5116394;28;20230;-65
2021/12/14 11:22:29;;;;;;;19.87;16.50;;;;;;;1.92;75.42;95374.56;5117870;28;20215;-63
2021/12/14 11:25:03;;;;;;;18.27;15.30;;;;;;;1.88;75.84;95373.94;5115121;28;20231;-63
2021/12/14 11:27:36;;;;;;;18.33;16.37;;;;;;;1.89;75.61;95372.16;5117072;28;20223;-62
2021/12/14 11:30:23;;;;;;;18.57;16.57;;;;;;;2.01;74.99;95379.25;5117975;28;20290;-61
2021/12/14 11:33:01;;;;;;;17.63;15.83;;;;;;;1.82;76.03;95373.44;5117590;27;20231;-63
2021/12/14 11:35:29;;;;;;;18.67;16.60;;;;;;;1.87;76.22;95372.28;5118358;28;20195;-62
2021/12/14 11:37:57;;;;;;;18.83;15.83;;;;;;;1.92;75.88;95372.81;5121098;28;20229;-62
2021/12/14 11:40:25;;;;;;;20.80;17.80;;;;;;;1.90;76.00;95369.50;5120183;28;20223;-64
2021/12/14 11:42:53;;;;;;;20.23;18.00;;;;;;;1.95;76.27;95371.81;5115944;28;20219;-63
2021/12/14 11:45:22;;;;;;;18.90;16.90;;;;;;;1.99;75.68;95378.50;5118751;28;20226;-63
2021/12/14 11:47:51;;;;;;;18.77;16.80;;;;;;;1.77;76.12;95371.16;5121748;28;20219;-62
2021/12/14 11:50:30;;;;;;;20.40;16.30;;;;;;;1.82;76.03;95366.53;5118687;28;20282;-64
2021/12/14 11:53:11;;;;;;;20.43;16.27;;;;;;;1.86;76.01;95368.00;5119582;28;20222;-63
2021/12/14 11:55:45;;;;;;;16.53;14.83;;;;;;;1.74;75.64;95361.78;5119416;28;20211;-64
2021/12/14 11:58:19;;;;;;;16.23;14.53;;;;;;;1.78;76.05;95365.03;5121755;28;20286;-64
2021/12/14 12:00:48;;;;;;;17.37;15.47;;;;;;;1.77;76.00;95371.97;5119954;28;20225;-64
2021/12/14 12:03:20;;;;;;;18.33;16.43;;;;;;;1.79;76.02;95350.28;5116892;28;20243;-65
2021/12/14 12:06:01;;;;;;;21.20;16.50;;;;;;;1.87;76.27;95354.13;5118116;28;20303;-65
2021/12/14 12:11:15;;;;;;;19.70;16.70;;;;;;;1.82;76.40;95363.94;5120537;28;20206;-65
2021/12/14 12:13:41;;;;;;;19.70;16.37;;;;;;;1.82;76.09;95365.66;5118055;28;20259;-64
2021/12/14 12:16:22;;;;;;;19.20;16.17;;;;;;;1.79;75.91;95358.06;5121318;28;20218;-65
2021/12/14 12:19:14;;;;;;;19.50;16.27;;;;;;;1.87;75.95;95358.47;5119374;28;20229;-64
2021/12/14 12:21:42;;;;;;;19.13;16.93;;;;;;;1.98;75.93;95362.09;5118906;28;20223;-65
2021/12/14 12:24:33;;;;;;;18.10;16.03;;;;;;;1.88;75.41;95360.13;5112604;28;20231;-63
2021/12/14 12:27:38;;;;;;;19.47;15.87;;;;;;;1.87;76.30;95363.63;5115245;28;20231;-63
2021/12/14 12:32:58;;;;;;;16.43;14.40;;;;;;;1.91;75.25;95353.00;5054351;28;20291;-62
2021/12/14 12:35:35;;;;;;;17.30;15.13;;;;;;;1.97;75.22;95357.00;5039247;28;20228;-63
2021/12/14 12:38:35;;;;;;;19.73;15.30;;;;;;;2.08;75.28;95356.34;5058964;28;20208;-64
2021/12/14 12:41:25;;;;;;;17.60;15.70;;;;;;;2.05;74.99;95361.72;5052415;28;20219;-63
2021/12/14 12:44:15;;;;;;;17.77;15.53;;;;;;;1.92;75.40;95361.63;5056262;28;20229;-63
2021/12/14 12:46:47;;;;;;;18.83;15.83;;;;;;;1.89;75.19;95361.78;5057592;28;20221;-64
2021/12/14 12:49:23;;;;;;;19.43;17.30;;;;;;;1.89;75.71;95352.25;5070977;28;20279;-64
2021/12/14 12:52:03;;;;;;;19.50;17.40;;;;;;;1.86;75.81;95361.97;5058518;28;20212;-62
2021/12/14 12:54:41;;;;;;;18.33;16.43;;;;;;;1.87;76.10;95363.63;5041634;28;20249;-62
2021/12/14 12:57:34;;;;;;;19.93;17.43;;;;;;;1.96;76.23;95348.38;5069985;28;20240;-62
2021/12/14 13:00:00;;;;;;;23.17;19.70;;;;;;;2.05;75.89;95362.56;5046164;28;20248;-61
2021/12/14 13:02:31;;;;;;;20.90;17.03;;;;;;;2.06;75.86;95356.47;5058368;28;20205;-60
2021/12/14 13:05:19;;;;;;;20.20;18.03;;;;;;;2.06;75.36;95353.88;5132135;27;20272;-67
2021/12/14 13:08:12;;;;;;;22.00;19.33;;;;;;;2.04;75.68;95355.72;5119039;28;20295;-63
2021/12/14 13:11:03;;;;;;;25.73;20.17;;;;;;;2.05;75.17;95361.72;5123772;28;20226;-61
2021/12/14 13:13:42;;;;;;;22.33;19.53;;;;;;;2.06;75.14;95364.25;5122987;28;20268;-61
2021/12/14 13:16:22;;;;;;;21.07;18.77;;;;;;;2.01;75.30;95363.69;5120814;28;20215;-62
2021/12/14 13:19:02;;;;;;;21.00;18.00;;;;;;;1.90;75.72;95359.13;5121751;28;20231;-63
2021/12/14 13:21:43;;;;;;;21.83;18.73;;;;;;;1.96;75.78;95356.16;5122372;28;20235;-63
2021/12/14 13:24:23;;;;;;;24.50;18.67;;;;;;;2.05;75.39;95361.72;5122791;28;20219;-62
2021/12/14 13:26:55;;;;;;;20.47;18.20;;;;;;;2.09;75.23;95364.06;5121627;28;20230;-62
2021/12/14 13:29:29;;;;;;;21.40;19.10;;;;;;;2.04;74.88;95362.66;5124347;28;20239;-63
2021/12/14 13:31:59;;;;;;;18.60;16.70;;;;;;;2.01;74.53;95358.50;5134169;27;20285;-62
2021/12/14 13:34:36;;;;;;;18.47;16.43;;;;;;;1.99;74.69;95362.94;5121478;28;20227;-62
2021/12/14 13:37:03;;;;;;;19.83;17.67;;;;;;;1.98;75.10;95366.47;5122740;28;20223;-62
2021/12/14 13:39:30;;;;;;;19.00;17.00;;;;;;;1.89;75.95;95362.63;5122287;28;20248;-60
2021/12/14 13:41:58;;;;;;;19.37;17.37;;;;;;;1.96;76.04;95369.13;5122808;28;20234;-61
2021/12/14 13:44:29;;;;;;;20.77;16.97;;;;;;;1.97;75.81;95373.38;5121286;28;20222;-65
2021/12/14 13:46:57;;;;;;;18.77;16.70;;;;;;;1.94;75.85;95373.56;5120196;28;20224;-62
2021/12/14 13:49:24;;;;;;;21.53;18.23;;;;;;;2.07;76.19;95376.28;5120622;28;20230;-64
2021/12/14 13:51:50;;;;;;;20.47;18.10;;;;;;;1.99;75.40;95368.13;5120237;28;20219;-62
2021/12/14 13:54:15;;;;;;;21.60;17.30;;;;;;;2.05;75.42;95382.47;5122221;28;20223;-61
2021/12/14 13:56:44;;;;;;;21.40;18.07;;;;;;;2.03;75.56;95377.38;5124944;28;20211;-62
2021/12/14 13:59:10;;;;;;;21.50;18.37;;;;;;;1.99;75.86;95373.31;5123649;28;20211;-62
2021/12/14 14:01:44;;;;;;;21.07;18.33;;;;;;;2.03;75.58;95385.16;5122355;28;20227;-64
2021/12/14 14:04:14;;;;;;;23.23;18.83;;;;;;;2.01;75.68;95378.41;5117740;28;20222;-61
2021/12/14 14:06:41;;;;;;;22.53;19.10;;;;;;;1.99;75.63;95384.50;5121540;27;20235;-66
2021/12/14 14:09:09;;;;;;;22.40;19.37;;;;;;;2.02;75.94;95387.84;5123402;28;20238;-62
2021/12/14 14:11:53;;;;;;;22.03;19.53;;;;;;;2.07;75.45;95384.06;5121408;28;20203;-63
2021/12/14 14:14:23;;;;;;;22.10;19.40;;;;;;;1.95;75.51;95392.53;5122692;28;20203;-64
2021/12/14 14:17:08;;;;;;;21.50;19.20;;;;;;;1.91;75.45;95383.28;5120980;28;20220;-65
2021/12/14 14:19:37;;;;;;;21.73;18.30;;;;;;;1.91;75.82;95380.69;5137749;27;20215;-64
2021/12/14 14:22:06;;;;;;;22.63;18.97;;;;;;;1.92;75.60;95384.94;5121712;28;20223;-64
2021/12/14 14:24:36;;;;;;;21.30;17.90;;;;;;;1.81;75.69;95377.81;5119718;28;20222;-63
2021/12/14 14:27:05;;;;;;;20.33;18.27;;;;;;;1.89;75.85;95379.94;5122453;28;20246;-64
2021/12/14 14:29:43;;;;;;;21.10;17.93;;;;;;;1.96;75.76;95389.88;5120506;28;20288;-64
2021/12/14 14:34:59;;;;;;;20.17;17.07;;;;;;;1.84;75.83;95388.00;5122819;28;20272;-63
2021/12/14 14:37:35;;;;;;;20.10;17.63;;;;;;;1.86;75.50;95388.75;5119141;28;20227;-63
2021/12/14 14:40:14;;;;;;;21.30;18.57;;;;;;;1.87;75.64;95389.56;5117609;28;20226;-65
2021/12/14 14:42:51;;;;;;;20.37;17.80;;;;;;;1.85;75.84;95392.28;5119414;28;20215;-65
2021/12/14 14:45:21;;;;;;;23.50;19.83;;;;;;;1.83;76.12;95395.88;5117272;28;20223;-62
2021/12/14 14:47:47;;;;;;;20.80;18.07;;;;;;;1.87;75.86;95407.72;5121129;28;20279;-63
2021/12/14 14:50:22;;;;;;;23.17;20.00;;;;;;;1.85;76.01;95405.22;5120738;28;20195;-63
2021/12/14 14:53:05;;;;;;;22.27;19.17;;;;;;;1.84;75.91;95394.94;5121345;28;20234;-65
2021/12/14 14:55:38;;;;;;;24.93;19.47;;;;;;;1.81;75.95;95395.94;5119712;28;20203;-64
2021/12/14 14:58:21;;;;;;;21.63;18.37;;;;;;;1.75;75.77;95399.75;5120760;28;20211;-64
2021/12/14 15:01:07;;;;;;;20.83;18.33;;;;;;;1.79;75.92;95404.75;5117900;28;20215;-64
2021/12/14 15:03:44;;;;;;;21.37;19.00;;;;;;;1.78;76.03;95409.09;5122062;28;20252;-65
2021/12/14 15:06:13;;;;;;;22.37;19.87;;;;;;;1.89;75.50;95403.28;5119115;28;20218;-67
2021/12/14 15:08:46;;;;;;;21.53;18.47;;;;;;;1.84;75.38;95406.16;5118991;28;20214;-65
2021/12/14 15:11:15;;;;;;;23.33;19.10;;;;;;;1.82;75.29;95409.75;5116028;28;20226;-65
2021/12/14 15:13:47;;;;;;;23.60;19.50;;;;;;;1.92;75.39;95403.09;5119732;28;20287;-65
2021/12/14 15:16:35;;;;;;;23.43;20.50;;;;;;;1.82;75.40;95407.16;5118614;28;20219;-64
2021/12/14 15:19:06;;;;;;;21.20;18.33;;;;;;;1.76;75.51;95409.22;5118173;28;20268;-65
2021/12/14 15:21:34;;;;;;;22.33;19.60;;;;;;;1.74;75.71;95416.22;5117533;28;20250;-64
2021/12/14 15:24:25;;;;;;;21.73;18.70;;;;;;;1.82;75.74;95413.19;5118146;28;20211;-68
2021/12/14 15:27:05;;;;;;;22.13;19.13;;;;;;;1.79;75.76;95418.53;5117487;27;20228;-64
2021/12/14 15:29:32;;;;;;;23.53;20.33;;;;;;;1.83;75.56;95419.22;5125427;27;20237;-64